sensor_id;sensor_type;location;lat;lon;timestamp;P1;durP1;ratioP1;P2;durP2;ratioP2
69280;SDS011;56392;51.082;17.080;2023-06-24T00:00:02;27.60;;;19.17;;
69280;SDS011;56392;51.082;17.080;2023-06-24T00:05:48;28.48;;;17.95;;
69280;SDS011;56392;51.082;17.080;2023-06-24T00:11:11;30.70;;;18.85;;
69280;SDS011;56392;51.082;17.080;2023-06-24T00:16:36;29.07;;;17.53;;
69280;SDS011;56392;51.082;17.080;2023-06-24T00:22:00;27.27;;;17.40;;
69280;SDS011;56392;51.082;17.080;2023-06-24T00:27:25;27.45;;;18.10;;
69280;SDS011;56392;51.082;17.080;2023-06-24T00:32:50;25.17;;;17.07;;
69280;SDS011;56392;51.082;17.080;2023-06-24T00:38:13;26.77;;;16.83;;
69280;SDS011;56392;51.082;17.080;2023-06-24T00:43:36;23.95;;;15.75;;
69280;SDS011;56392;51.082;17.080;2023-06-24T00:49:02;26.55;;;15.85;;
69280;SDS011;56392;51.082;17.080;2023-06-24T00:54:25;26.67;;;15.90;;
69280;SDS011;56392;51.082;17.080;2023-06-24T00:59:52;25.50;;;15.15;;
69280;SDS011;56392;51.082;17.080;2023-06-24T01:05:17;27.58;;;15.32;;
69280;SDS011;56392;51.082;17.080;2023-06-24T01:10:45;23.17;;;13.80;;
69280;SDS011;56392;51.082;17.080;2023-06-24T01:16:10;22.38;;;14.57;;
69280;SDS011;56392;51.082;17.080;2023-06-24T01:21:42;20.00;;;13.07;;
69280;SDS011;56392;51.082;17.080;2023-06-24T01:27:31;21.10;;;11.80;;
69280;SDS011;56392;51.082;17.080;2023-06-24T01:33:09;21.30;;;11.83;;
69280;SDS011;56392;51.082;17.080;2023-06-24T01:38:35;16.60;;;10.20;;
69280;SDS011;56392;51.082;17.080;2023-06-24T01:44:03;15.23;;;8.77;;
69280;SDS011;56392;51.082;17.080;2023-06-24T01:49:29;14.83;;;7.40;;
69280;SDS011;56392;51.082;17.080;2023-06-24T01:54:55;11.93;;;6.40;;
69280;SDS011;56392;51.082;17.080;2023-06-24T02:00:18;18.35;;;6.38;;
69280;SDS011;56392;51.082;17.080;2023-06-24T02:05:46;13.97;;;6.30;;
69280;SDS011;56392;51.082;17.080;2023-06-24T02:11:10;10.80;;;6.30;;
69280;SDS011;56392;51.082;17.080;2023-06-24T02:16:35;14.20;;;6.53;;
69280;SDS011;56392;51.082;17.080;2023-06-24T02:22:00;11.57;;;6.50;;
69280;SDS011;56392;51.082;17.080;2023-06-24T02:27:26;14.70;;;7.00;;
69280;SDS011;56392;51.082;17.080;2023-06-24T02:32:49;13.68;;;6.47;;
69280;SDS011;56392;51.082;17.080;2023-06-24T02:38:14;14.52;;;6.35;;
69280;SDS011;56392;51.082;17.080;2023-06-24T02:43:39;11.87;;;6.20;;
69280;SDS011;56392;51.082;17.080;2023-06-24T02:49:03;14.13;;;6.53;;
69280;SDS011;56392;51.082;17.080;2023-06-24T02:54:28;14.38;;;6.60;;
69280;SDS011;56392;51.082;17.080;2023-06-24T02:59:51;12.80;;;6.10;;
69280;SDS011;56392;51.082;17.080;2023-06-24T03:05:15;11.70;;;6.45;;
69280;SDS011;56392;51.082;17.080;2023-06-24T03:10:39;12.18;;;6.22;;
69280;SDS011;56392;51.082;17.080;2023-06-24T03:16:03;10.90;;;5.90;;
69280;SDS011;56392;51.082;17.080;2023-06-24T03:21:27;10.17;;;5.83;;
69280;SDS011;56392;51.082;17.080;2023-06-24T03:26:52;15.95;;;5.95;;
69280;SDS011;56392;51.082;17.080;2023-06-24T03:32:18;13.73;;;5.72;;
69280;SDS011;56392;51.082;17.080;2023-06-24T03:37:42;9.33;;;5.33;;
69280;SDS011;56392;51.082;17.080;2023-06-24T03:43:07;12.80;;;5.32;;
69280;SDS011;56392;51.082;17.080;2023-06-24T03:48:32;11.63;;;5.85;;
69280;SDS011;56392;51.082;17.080;2023-06-24T03:53:56;11.40;;;5.20;;
69280;SDS011;56392;51.082;17.080;2023-06-24T03:59:20;12.07;;;5.80;;
69280;SDS011;56392;51.082;17.080;2023-06-24T04:04:46;10.93;;;5.55;;
69280;SDS011;56392;51.082;17.080;2023-06-24T04:10:11;13.23;;;5.27;;
69280;SDS011;56392;51.082;17.080;2023-06-24T04:15:36;11.03;;;5.33;;
69280;SDS011;56392;51.082;17.080;2023-06-24T04:20:59;9.60;;;5.03;;
69280;SDS011;56392;51.082;17.080;2023-06-24T04:26:23;11.48;;;5.10;;
69280;SDS011;56392;51.082;17.080;2023-06-24T04:31:48;9.67;;;4.63;;
69280;SDS011;56392;51.082;17.080;2023-06-24T04:37:11;10.40;;;4.68;;
69280;SDS011;56392;51.082;17.080;2023-06-24T04:42:35;10.23;;;4.25;;
69280;SDS011;56392;51.082;17.080;2023-06-24T04:48:00;10.50;;;4.17;;
69280;SDS011;56392;51.082;17.080;2023-06-24T04:53:24;8.45;;;4.05;;
69280;SDS011;56392;51.082;17.080;2023-06-24T04:58:47;8.15;;;3.70;;
69280;SDS011;56392;51.082;17.080;2023-06-24T05:04:11;8.80;;;4.10;;
69280;SDS011;56392;51.082;17.080;2023-06-24T05:09:37;10.10;;;3.90;;
69280;SDS011;56392;51.082;17.080;2023-06-24T05:15:00;9.80;;;3.95;;
69280;SDS011;56392;51.082;17.080;2023-06-24T05:20:26;9.00;;;4.05;;
69280;SDS011;56392;51.082;17.080;2023-06-24T05:25:49;12.97;;;4.90;;
69280;SDS011;56392;51.082;17.080;2023-06-24T05:31:13;9.82;;;4.00;;
69280;SDS011;56392;51.082;17.080;2023-06-24T05:36:37;10.18;;;4.05;;
69280;SDS011;56392;51.082;17.080;2023-06-24T05:42:00;9.20;;;3.83;;
69280;SDS011;56392;51.082;17.080;2023-06-24T05:47:23;7.03;;;3.00;;
69280;SDS011;56392;51.082;17.080;2023-06-24T05:52:48;7.82;;;3.10;;
69280;SDS011;56392;51.082;17.080;2023-06-24T05:58:11;8.80;;;3.23;;
69280;SDS011;56392;51.082;17.080;2023-06-24T06:03:34;8.97;;;3.20;;
69280;SDS011;56392;51.082;17.080;2023-06-24T06:08:59;8.98;;;3.50;;
69280;SDS011;56392;51.082;17.080;2023-06-24T06:14:22;8.73;;;3.45;;
69280;SDS011;56392;51.082;17.080;2023-06-24T06:19:45;8.60;;;3.47;;
69280;SDS011;56392;51.082;17.080;2023-06-24T06:25:10;10.32;;;4.00;;
69280;SDS011;56392;51.082;17.080;2023-06-24T06:30:33;9.57;;;3.90;;
69280;SDS011;56392;51.082;17.080;2023-06-24T06:35:58;9.57;;;4.17;;
69280;SDS011;56392;51.082;17.080;2023-06-24T06:41:23;11.27;;;4.50;;
69280;SDS011;56392;51.082;17.080;2023-06-24T06:46:47;10.70;;;6.00;;
69280;SDS011;56392;51.082;17.080;2023-06-24T06:52:11;10.63;;;5.97;;
69280;SDS011;56392;51.082;17.080;2023-06-24T06:57:37;11.77;;;5.80;;
69280;SDS011;56392;51.082;17.080;2023-06-24T07:03:00;11.90;;;5.47;;
69280;SDS011;56392;51.082;17.080;2023-06-24T07:08:23;10.48;;;5.80;;
69280;SDS011;56392;51.082;17.080;2023-06-24T07:13:48;12.20;;;5.40;;
69280;SDS011;56392;51.082;17.080;2023-06-24T07:19:12;10.82;;;5.25;;
69280;SDS011;56392;51.082;17.080;2023-06-24T07:24:36;12.50;;;5.90;;
69280;SDS011;56392;51.082;17.080;2023-06-24T07:30:01;12.70;;;5.50;;
69280;SDS011;56392;51.082;17.080;2023-06-24T07:35:24;12.15;;;6.45;;
69280;SDS011;56392;51.082;17.080;2023-06-24T07:40:48;13.18;;;6.82;;
69280;SDS011;56392;51.082;17.080;2023-06-24T07:46:13;12.13;;;6.83;;
69280;SDS011;56392;51.082;17.080;2023-06-24T07:51:37;12.43;;;6.83;;
69280;SDS011;56392;51.082;17.080;2023-06-24T07:57:00;13.80;;;7.00;;
69280;SDS011;56392;51.082;17.080;2023-06-24T08:02:27;14.70;;;7.25;;
69280;SDS011;56392;51.082;17.080;2023-06-24T08:07:51;15.23;;;7.73;;
69280;SDS011;56392;51.082;17.080;2023-06-24T08:13:14;14.07;;;7.68;;
69280;SDS011;56392;51.082;17.080;2023-06-24T08:18:39;13.10;;;7.50;;
69280;SDS011;56392;51.082;17.080;2023-06-24T08:24:02;13.53;;;7.80;;
69280;SDS011;56392;51.082;17.080;2023-06-24T08:29:26;13.73;;;8.13;;
69280;SDS011;56392;51.082;17.080;2023-06-24T08:34:50;15.25;;;8.50;;
69280;SDS011;56392;51.082;17.080;2023-06-24T08:40:21;13.67;;;8.47;;
69280;SDS011;56392;51.082;17.080;2023-06-24T08:45:44;13.17;;;8.43;;
69280;SDS011;56392;51.082;17.080;2023-06-24T08:51:10;13.57;;;8.43;;
69280;SDS011;56392;51.082;17.080;2023-06-24T08:56:36;14.02;;;7.65;;
69280;SDS011;56392;51.082;17.080;2023-06-24T09:02:00;13.90;;;7.70;;
69280;SDS011;56392;51.082;17.080;2023-06-24T09:07:28;14.07;;;7.45;;
69280;SDS011;56392;51.082;17.080;2023-06-24T09:12:53;12.95;;;7.70;;
69280;SDS011;56392;51.082;17.080;2023-06-24T09:18:17;14.10;;;7.63;;
69280;SDS011;56392;51.082;17.080;2023-06-24T09:23:42;14.27;;;8.25;;
69280;SDS011;56392;51.082;17.080;2023-06-24T09:29:06;14.98;;;8.77;;
69280;SDS011;56392;51.082;17.080;2023-06-24T09:34:30;15.70;;;9.10;;
69280;SDS011;56392;51.082;17.080;2023-06-24T09:39:55;14.50;;;9.47;;
69280;SDS011;56392;51.082;17.080;2023-06-24T09:45:24;14.52;;;8.80;;
69280;SDS011;56392;51.082;17.080;2023-06-24T09:50:48;15.80;;;8.93;;
69280;SDS011;56392;51.082;17.080;2023-06-24T09:56:13;15.77;;;9.67;;
69280;SDS011;56392;51.082;17.080;2023-06-24T10:01:39;16.38;;;8.98;;
69280;SDS011;56392;51.082;17.080;2023-06-24T10:07:03;12.68;;;7.97;;
69280;SDS011;56392;51.082;17.080;2023-06-24T10:12:28;15.37;;;8.27;;
69280;SDS011;56392;51.082;17.080;2023-06-24T10:17:53;15.15;;;8.52;;
69280;SDS011;56392;51.082;17.080;2023-06-24T10:23:16;14.20;;;8.40;;
69280;SDS011;56392;51.082;17.080;2023-06-24T10:34:41;12.70;;;8.20;;
69280;SDS011;56392;51.082;17.080;2023-06-24T10:40:05;16.73;;;8.75;;
69280;SDS011;56392;51.082;17.080;2023-06-24T10:45:29;13.93;;;8.30;;
69280;SDS011;56392;51.082;17.080;2023-06-24T10:50:53;14.13;;;8.20;;
69280;SDS011;56392;51.082;17.080;2023-06-24T10:56:16;13.52;;;7.90;;
69280;SDS011;56392;51.082;17.080;2023-06-24T11:01:51;14.65;;;7.47;;
69280;SDS011;56392;51.082;17.080;2023-06-24T11:07:19;15.17;;;7.10;;
69280;SDS011;56392;51.082;17.080;2023-06-24T11:12:43;12.57;;;7.40;;
69280;SDS011;56392;51.082;17.080;2023-06-24T11:18:08;13.85;;;7.25;;
69280;SDS011;56392;51.082;17.080;2023-06-24T11:23:33;12.33;;;6.50;;
69280;SDS011;56392;51.082;17.080;2023-06-24T11:28:56;11.33;;;6.23;;
69280;SDS011;56392;51.082;17.080;2023-06-24T11:34:20;12.23;;;6.32;;
69280;SDS011;56392;51.082;17.080;2023-06-24T11:39:52;11.73;;;6.50;;
69280;SDS011;56392;51.082;17.080;2023-06-24T11:45:24;14.13;;;6.67;;
69280;SDS011;56392;51.082;17.080;2023-06-24T11:50:52;13.43;;;6.80;;
69280;SDS011;56392;51.082;17.080;2023-06-24T11:56:17;11.90;;;7.10;;
69280;SDS011;56392;51.082;17.080;2023-06-24T12:01:45;12.07;;;7.20;;
69280;SDS011;56392;51.082;17.080;2023-06-24T12:07:08;13.50;;;6.22;;
69280;SDS011;56392;51.082;17.080;2023-06-24T12:12:34;10.73;;;6.00;;
69280;SDS011;56392;51.082;17.080;2023-06-24T12:17:57;12.00;;;6.17;;
69280;SDS011;56392;51.082;17.080;2023-06-24T12:23:21;11.87;;;6.33;;
69280;SDS011;56392;51.082;17.080;2023-06-24T12:28:45;13.20;;;6.45;;
69280;SDS011;56392;51.082;17.080;2023-06-24T12:34:10;10.27;;;5.68;;
69280;SDS011;56392;51.082;17.080;2023-06-24T12:39:34;10.57;;;6.13;;
69280;SDS011;56392;51.082;17.080;2023-06-24T12:44:59;12.68;;;5.93;;
69280;SDS011;56392;51.082;17.080;2023-06-24T12:50:22;10.63;;;5.65;;
69280;SDS011;56392;51.082;17.080;2023-06-24T12:55:45;13.73;;;7.17;;
69280;SDS011;56392;51.082;17.080;2023-06-24T13:01:10;10.98;;;6.57;;
69280;SDS011;56392;51.082;17.080;2023-06-24T13:06:33;10.52;;;6.10;;
69280;SDS011;56392;51.082;17.080;2023-06-24T13:11:56;10.63;;;5.50;;
69280;SDS011;56392;51.082;17.080;2023-06-24T13:17:20;10.80;;;5.90;;
69280;SDS011;56392;51.082;17.080;2023-06-24T13:22:43;11.25;;;5.97;;
69280;SDS011;56392;51.082;17.080;2023-06-24T13:28:08;10.55;;;6.05;;
69280;SDS011;56392;51.082;17.080;2023-06-24T13:33:32;12.27;;;5.27;;
69280;SDS011;56392;51.082;17.080;2023-06-24T13:38:55;12.52;;;5.65;;
69280;SDS011;56392;51.082;17.080;2023-06-24T13:44:19;10.77;;;5.90;;
69280;SDS011;56392;51.082;17.080;2023-06-24T13:49:44;10.27;;;5.43;;
69280;SDS011;56392;51.082;17.080;2023-06-24T13:55:07;9.75;;;5.32;;
69280;SDS011;56392;51.082;17.080;2023-06-24T14:00:30;9.98;;;5.32;;
69280;SDS011;56392;51.082;17.080;2023-06-24T14:05:55;8.87;;;4.90;;
69280;SDS011;56392;51.082;17.080;2023-06-24T14:11:19;9.00;;;4.97;;
69280;SDS011;56392;51.082;17.080;2023-06-24T14:16:42;9.85;;;5.25;;
69280;SDS011;56392;51.082;17.080;2023-06-24T14:22:07;9.55;;;5.10;;
69280;SDS011;56392;51.082;17.080;2023-06-24T14:27:30;9.23;;;4.53;;
69280;SDS011;56392;51.082;17.080;2023-06-24T14:32:53;8.57;;;4.72;;
69280;SDS011;56392;51.082;17.080;2023-06-24T14:38:19;10.77;;;5.00;;
69280;SDS011;56392;51.082;17.080;2023-06-24T14:43:42;8.83;;;4.60;;
69280;SDS011;56392;51.082;17.080;2023-06-24T14:49:05;8.68;;;4.65;;
69280;SDS011;56392;51.082;17.080;2023-06-24T14:54:29;8.85;;;4.90;;
69280;SDS011;56392;51.082;17.080;2023-06-24T14:59:52;9.93;;;4.90;;
69280;SDS011;56392;51.082;17.080;2023-06-24T15:05:15;11.00;;;4.97;;
69280;SDS011;56392;51.082;17.080;2023-06-24T15:10:40;8.43;;;5.07;;
69280;SDS011;56392;51.082;17.080;2023-06-24T15:16:03;9.10;;;5.05;;
69280;SDS011;56392;51.082;17.080;2023-06-24T15:21:27;9.97;;;5.60;;
69280;SDS011;56392;51.082;17.080;2023-06-24T15:26:52;10.15;;;5.10;;
69280;SDS011;56392;51.082;17.080;2023-06-24T15:32:15;19.13;;;8.18;;
69280;SDS011;56392;51.082;17.080;2023-06-24T15:37:42;10.77;;;5.87;;
69280;SDS011;56392;51.082;17.080;2023-06-24T15:43:06;9.45;;;5.47;;
69280;SDS011;56392;51.082;17.080;2023-06-24T15:48:30;11.70;;;5.25;;
69280;SDS011;56392;51.082;17.080;2023-06-24T15:53:53;11.67;;;5.63;;
69280;SDS011;56392;51.082;17.080;2023-06-24T15:59:18;10.63;;;5.47;;
69280;SDS011;56392;51.082;17.080;2023-06-24T16:04:41;10.40;;;5.35;;
69280;SDS011;56392;51.082;17.080;2023-06-24T16:10:04;11.18;;;5.45;;
69280;SDS011;56392;51.082;17.080;2023-06-24T16:15:30;8.80;;;5.20;;
69280;SDS011;56392;51.082;17.080;2023-06-24T16:20:53;11.63;;;5.38;;
69280;SDS011;56392;51.082;17.080;2023-06-24T16:26:16;9.90;;;5.50;;
69280;SDS011;56392;51.082;17.080;2023-06-24T16:31:41;9.80;;;5.13;;
69280;SDS011;56392;51.082;17.080;2023-06-24T16:37:04;10.52;;;5.32;;
69280;SDS011;56392;51.082;17.080;2023-06-24T16:42:27;11.77;;;5.30;;
69280;SDS011;56392;51.082;17.080;2023-06-24T16:47:51;9.30;;;5.40;;
69280;SDS011;56392;51.082;17.080;2023-06-24T16:53:15;11.10;;;5.50;;
69280;SDS011;56392;51.082;17.080;2023-06-24T16:58:38;10.18;;;5.40;;
69280;SDS011;56392;51.082;17.080;2023-06-24T17:04:04;10.10;;;5.20;;
69280;SDS011;56392;51.082;17.080;2023-06-24T17:09:28;10.07;;;5.50;;
69280;SDS011;56392;51.082;17.080;2023-06-24T17:14:53;11.05;;;5.28;;
69280;SDS011;56392;51.082;17.080;2023-06-24T17:20:17;9.35;;;5.68;;
69280;SDS011;56392;51.082;17.080;2023-06-24T17:25:41;12.60;;;5.63;;
69280;SDS011;56392;51.082;17.080;2023-06-24T17:31:07;9.95;;;5.70;;
69280;SDS011;56392;51.082;17.080;2023-06-24T17:36:32;9.60;;;5.55;;
69280;SDS011;56392;51.082;17.080;2023-06-24T17:41:55;11.87;;;5.53;;
69280;SDS011;56392;51.082;17.080;2023-06-24T17:47:18;12.37;;;6.50;;
69280;SDS011;56392;51.082;17.080;2023-06-24T17:52:43;12.73;;;6.47;;
69280;SDS011;56392;51.082;17.080;2023-06-24T17:58:06;11.73;;;6.40;;
69280;SDS011;56392;51.082;17.080;2023-06-24T18:03:30;11.67;;;6.37;;
69280;SDS011;56392;51.082;17.080;2023-06-24T18:08:55;12.90;;;6.63;;
69280;SDS011;56392;51.082;17.080;2023-06-24T18:14:18;12.63;;;6.28;;
69280;SDS011;56392;51.082;17.080;2023-06-24T18:19:43;11.23;;;6.13;;
69280;SDS011;56392;51.082;17.080;2023-06-24T18:25:08;12.18;;;6.43;;
69280;SDS011;56392;51.082;17.080;2023-06-24T18:30:32;13.68;;;7.10;;
69280;SDS011;56392;51.082;17.080;2023-06-24T18:35:55;11.03;;;6.60;;
69280;SDS011;56392;51.082;17.080;2023-06-24T18:41:20;12.97;;;6.93;;
69280;SDS011;56392;51.082;17.080;2023-06-24T18:46:44;11.27;;;6.75;;
69280;SDS011;56392;51.082;17.080;2023-06-24T18:52:08;12.27;;;7.32;;
69280;SDS011;56392;51.082;17.080;2023-06-24T18:57:32;12.97;;;7.27;;
69280;SDS011;56392;51.082;17.080;2023-06-24T19:02:55;13.43;;;7.72;;
69280;SDS011;56392;51.082;17.080;2023-06-24T19:08:20;13.40;;;7.00;;
69280;SDS011;56392;51.082;17.080;2023-06-24T19:13:46;11.80;;;7.77;;
69280;SDS011;56392;51.082;17.080;2023-06-24T19:19:12;12.93;;;7.57;;
69280;SDS011;56392;51.082;17.080;2023-06-24T19:24:36;13.75;;;7.25;;
69280;SDS011;56392;51.082;17.080;2023-06-24T19:30:02;14.80;;;8.20;;
69280;SDS011;56392;51.082;17.080;2023-06-24T19:35:26;16.30;;;8.90;;
69280;SDS011;56392;51.082;17.080;2023-06-24T19:40:50;12.57;;;7.93;;
69280;SDS011;56392;51.082;17.080;2023-06-24T19:46:16;14.27;;;8.10;;
69280;SDS011;56392;51.082;17.080;2023-06-24T19:51:39;13.73;;;7.60;;
69280;SDS011;56392;51.082;17.080;2023-06-24T19:57:03;13.43;;;8.05;;
69280;SDS011;56392;51.082;17.080;2023-06-24T20:02:28;13.40;;;7.70;;
69280;SDS011;56392;51.082;17.080;2023-06-24T20:07:51;14.70;;;7.27;;
69280;SDS011;56392;51.082;17.080;2023-06-24T20:13:14;12.35;;;8.27;;
69280;SDS011;56392;51.082;17.080;2023-06-24T20:18:40;14.35;;;7.50;;
69280;SDS011;56392;51.082;17.080;2023-06-24T20:24:03;17.83;;;8.20;;
69280;SDS011;56392;51.082;17.080;2023-06-24T20:29:28;13.27;;;8.10;;
69280;SDS011;56392;51.082;17.080;2023-06-24T20:34:53;14.48;;;8.07;;
69280;SDS011;56392;51.082;17.080;2023-06-24T20:40:16;13.63;;;7.95;;
69280;SDS011;56392;51.082;17.080;2023-06-24T20:45:39;14.80;;;8.27;;
69280;SDS011;56392;51.082;17.080;2023-06-24T20:51:04;14.05;;;8.68;;
69280;SDS011;56392;51.082;17.080;2023-06-24T20:56:27;13.73;;;8.00;;
69280;SDS011;56392;51.082;17.080;2023-06-24T21:01:51;15.63;;;8.67;;
69280;SDS011;56392;51.082;17.080;2023-06-24T21:07:17;15.55;;;8.43;;
69280;SDS011;56392;51.082;17.080;2023-06-24T21:12:40;14.63;;;8.38;;
69280;SDS011;56392;51.082;17.080;2023-06-24T21:18:03;15.87;;;9.53;;
69280;SDS011;56392;51.082;17.080;2023-06-24T21:23:30;16.77;;;8.40;;
69280;SDS011;56392;51.082;17.080;2023-06-24T21:28:53;14.02;;;7.93;;
69280;SDS011;56392;51.082;17.080;2023-06-24T21:34:16;15.50;;;7.78;;
69280;SDS011;56392;51.082;17.080;2023-06-24T21:39:42;18.73;;;8.43;;
69280;SDS011;56392;51.082;17.080;2023-06-24T21:45:06;15.38;;;8.38;;
69280;SDS011;56392;51.082;17.080;2023-06-24T21:50:29;13.40;;;8.52;;
69280;SDS011;56392;51.082;17.080;2023-06-24T21:55:54;14.03;;;8.97;;
69280;SDS011;56392;51.082;17.080;2023-06-24T22:01:18;14.57;;;8.85;;
69280;SDS011;56392;51.082;17.080;2023-06-24T22:06:41;16.45;;;9.10;;
69280;SDS011;56392;51.082;17.080;2023-06-24T22:12:06;12.67;;;8.00;;
69280;SDS011;56392;51.082;17.080;2023-06-24T22:17:30;19.97;;;8.73;;
69280;SDS011;56392;51.082;17.080;2023-06-24T22:22:53;16.42;;;8.90;;
69280;SDS011;56392;51.082;17.080;2023-06-24T22:28:19;13.98;;;8.75;;
69280;SDS011;56392;51.082;17.080;2023-06-24T22:33:42;17.00;;;8.57;;
69280;SDS011;56392;51.082;17.080;2023-06-24T22:39:05;14.73;;;8.18;;
69280;SDS011;56392;51.082;17.080;2023-06-24T22:44:29;17.80;;;8.77;;
69280;SDS011;56392;51.082;17.080;2023-06-24T22:49:52;16.83;;;8.53;;
69280;SDS011;56392;51.082;17.080;2023-06-24T22:55:16;14.38;;;8.32;;
69280;SDS011;56392;51.082;17.080;2023-06-24T23:00:40;15.55;;;8.82;;
69280;SDS011;56392;51.082;17.080;2023-06-24T23:06:04;15.37;;;8.90;;
69280;SDS011;56392;51.082;17.080;2023-06-24T23:11:28;15.20;;;9.13;;
69280;SDS011;56392;51.082;17.080;2023-06-24T23:16:54;19.05;;;10.10;;
69280;SDS011;56392;51.082;17.080;2023-06-24T23:22:17;16.15;;;9.25;;
69280;SDS011;56392;51.082;17.080;2023-06-24T23:27:41;16.87;;;10.03;;
69280;SDS011;56392;51.082;17.080;2023-06-24T23:33:06;15.15;;;10.02;;
69280;SDS011;56392;51.082;17.080;2023-06-24T23:38:29;20.08;;;10.50;;
69280;SDS011;56392;51.082;17.080;2023-06-24T23:43:53;16.93;;;9.33;;
69280;SDS011;56392;51.082;17.080;2023-06-24T23:49:18;16.88;;;10.38;;
69280;SDS011;56392;51.082;17.080;2023-06-24T23:54:41;18.95;;;11.38;;
